createdAt,value
2017-09-22T00:01:56.950Z,15.60
2017-09-22T00:04:24.519Z,16.63
2017-09-22T00:06:52.878Z,13.83
2017-09-22T00:09:20.470Z,16.70
2017-09-22T00:11:48.831Z,16.07
2017-09-22T00:14:16.420Z,14.93
2017-09-22T00:16:44.018Z,15.10
2017-09-22T00:19:11.638Z,12.93
2017-09-22T00:21:39.235Z,17.50
2017-09-22T00:24:06.855Z,13.30
2017-09-22T00:26:35.198Z,15.10
2017-09-22T00:29:02.790Z,15.40
2017-09-22T00:31:31.183Z,18.73
2017-09-22T00:33:58.854Z,17.20
2017-09-22T00:36:26.446Z,16.43
2017-09-22T00:38:54.059Z,14.70
2017-09-22T00:41:22.402Z,16.07
2017-09-22T00:43:50.006Z,15.93
2017-09-22T00:46:17.610Z,19.57
2017-09-22T00:48:45.202Z,15.83
2017-09-22T00:51:12.850Z,17.63
2017-09-22T00:53:40.474Z,14.17
2017-09-22T00:56:08.058Z,17.07
2017-09-22T00:58:35.650Z,18.60
2017-09-22T01:01:03.219Z,17.83
2017-09-22T01:03:31.599Z,14.03
2017-09-22T01:05:59.970Z,16.70
2017-09-22T01:08:27.586Z,18.00
2017-09-22T01:10:55.353Z,22.47
2017-09-22T01:13:22.946Z,20.83
2017-09-22T01:15:50.754Z,18.10
2017-09-22T01:18:19.375Z,15.57
2017-09-22T01:20:46.941Z,19.10
2017-09-22T01:23:15.487Z,22.17
2017-09-22T01:25:43.136Z,19.17
2017-09-22T01:28:11.522Z,17.43
2017-09-22T01:30:39.521Z,21.10
2017-09-22T01:33:07.090Z,19.17
2017-09-22T01:35:34.654Z,16.60
2017-09-22T01:38:02.380Z,14.93
2017-09-22T01:40:30.680Z,23.37
2017-09-22T01:42:58.544Z,17.33
2017-09-22T01:45:26.128Z,18.50
2017-09-22T01:47:54.021Z,16.00
2017-09-22T01:50:21.616Z,18.80
2017-09-22T01:52:50.129Z,18.00
2017-09-22T01:55:18.568Z,17.00
2017-09-22T01:57:47.196Z,18.73
2017-09-22T02:00:14.761Z,17.13
2017-09-22T02:02:42.377Z,19.20
2017-09-22T02:05:10.897Z,19.23
2017-09-22T02:07:38.478Z,20.30
2017-09-22T02:10:06.062Z,20.47
2017-09-22T02:12:33.654Z,22.40
2017-09-22T02:15:01.242Z,20.07
2017-09-22T02:17:28.834Z,24.73
2017-09-22T02:19:56.414Z,19.80
2017-09-22T02:22:24.006Z,24.13
2017-09-22T02:24:51.606Z,22.00
2017-09-22T02:27:19.194Z,18.40
2017-09-22T02:29:46.777Z,21.60
2017-09-22T02:32:15.102Z,21.73
2017-09-22T02:34:43.007Z,20.90
2017-09-22T02:37:10.580Z,24.40
2017-09-22T02:39:38.929Z,22.30
2017-09-22T02:42:06.963Z,22.20
2017-09-22T02:44:34.551Z,26.20
2017-09-22T02:47:02.128Z,25.20
2017-09-22T02:49:29.705Z,31.17
2017-09-22T02:51:57.538Z,22.00
2017-09-22T02:54:25.112Z,23.93
2017-09-22T02:56:53.042Z,25.07
2017-09-22T02:59:20.812Z,24.73
2017-09-22T03:01:48.382Z,24.47
2017-09-22T03:04:15.968Z,26.60
2017-09-22T03:06:43.866Z,22.90
2017-09-22T03:09:12.186Z,23.20
2017-09-22T03:11:39.967Z,22.63
2017-09-22T03:14:07.540Z,22.73
2017-09-22T03:16:35.302Z,24.47
2017-09-22T03:19:02.970Z,22.20
2017-09-22T03:21:30.525Z,24.87
2017-09-22T03:23:58.093Z,28.87
2017-09-22T03:26:25.692Z,27.97
2017-09-22T03:28:54.049Z,22.93
2017-09-22T03:31:21.830Z,25.47
2017-09-22T03:33:50.169Z,24.70
2017-09-22T03:36:17.758Z,25.60
2017-09-22T03:38:46.101Z,24.97
2017-09-22T03:41:13.686Z,25.60
2017-09-22T03:43:41.435Z,24.97
2017-09-22T03:46:09.369Z,25.23
2017-09-22T03:48:37.246Z,28.00
2017-09-22T03:51:04.841Z,24.20
2017-09-22T03:53:32.623Z,28.57
2017-09-22T03:56:00.219Z,26.63
2017-09-22T03:58:27.807Z,28.73
2017-09-22T04:00:57.418Z,24.70
2017-09-22T04:03:25.014Z,30.60
2017-09-22T04:05:52.714Z,23.27
2017-09-22T04:08:20.314Z,25.53
2017-09-22T04:10:47.878Z,27.30
2017-09-22T04:13:15.634Z,28.57
2017-09-22T04:15:43.994Z,32.40
2017-09-22T04:18:11.573Z,23.77
2017-09-22T04:20:39.145Z,26.33
2017-09-22T04:23:06.902Z,27.40
2017-09-22T04:25:34.491Z,31.30
2017-09-22T04:28:02.069Z,28.57
2017-09-22T04:30:30.429Z,24.93
2017-09-22T04:32:58.042Z,26.63
2017-09-22T04:35:25.613Z,32.13
2017-09-22T04:37:53.176Z,28.33
2017-09-22T04:40:21.127Z,29.00
2017-09-22T04:42:48.702Z,32.53
2017-09-22T04:45:16.658Z,28.33
2017-09-22T04:47:44.222Z,28.77
2017-09-22T04:50:11.803Z,31.10
2017-09-22T04:52:39.386Z,33.07
2017-09-22T04:55:07.019Z,34.00
2017-09-22T04:57:34.561Z,32.73
2017-09-22T05:00:02.171Z,29.20
2017-09-22T05:02:29.766Z,28.33
2017-09-22T05:04:58.274Z,29.43
2017-09-22T05:07:25.858Z,29.23
2017-09-22T05:09:53.469Z,32.10
2017-09-22T05:12:21.861Z,31.00
2017-09-22T05:14:49.434Z,28.17
2017-09-22T05:17:17.001Z,31.07
2017-09-22T05:19:44.591Z,31.63
2017-09-22T05:22:12.151Z,36.83
2017-09-22T05:24:39.766Z,29.17
2017-09-22T05:27:07.379Z,32.73
2017-09-22T05:29:34.984Z,29.10
2017-09-22T05:32:02.578Z,32.33
2017-09-22T05:34:30.141Z,37.40
2017-09-22T05:36:57.739Z,28.17
2017-09-22T05:39:25.319Z,28.17
2017-09-22T05:41:54.554Z,28.30
2017-09-22T05:44:22.142Z,32.33
2017-09-22T05:46:49.878Z,31.33
2017-09-22T05:49:17.495Z,31.63
2017-09-22T05:51:45.067Z,31.23
2017-09-22T05:54:13.726Z,27.50
2017-09-22T05:56:41.298Z,27.67
2017-09-22T05:59:09.830Z,28.00
2017-09-22T06:01:37.674Z,27.77
2017-09-22T06:04:05.243Z,28.53
2017-09-22T06:06:33.059Z,27.63
2017-09-22T06:09:00.662Z,31.43
2017-09-22T06:11:28.426Z,26.97
2017-09-22T06:13:56.289Z,28.60
2017-09-22T06:16:24.633Z,27.67
2017-09-22T06:18:52.222Z,42.73
2017-09-22T06:21:20.576Z,30.67
2017-09-22T06:23:48.322Z,31.20
2017-09-22T06:26:15.923Z,32.90
2017-09-22T06:28:44.545Z,27.63
2017-09-22T06:31:12.411Z,26.27
2017-09-22T06:33:40.001Z,29.93
2017-09-22T06:36:07.742Z,26.50
2017-09-22T06:38:35.343Z,30.67
2017-09-22T06:41:03.279Z,28.40
2017-09-22T06:43:32.302Z,25.80
2017-09-22T06:46:00.165Z,34.87
2017-09-22T06:48:27.779Z,27.90
2017-09-22T06:50:55.369Z,28.47
2017-09-22T06:53:22.981Z,23.03
2017-09-22T06:55:51.317Z,25.97
2017-09-22T06:58:18.879Z,24.80
2017-09-22T07:00:46.736Z,25.30
2017-09-22T07:03:14.344Z,29.27
2017-09-22T07:05:41.926Z,21.13
2017-09-22T07:08:09.508Z,22.77
2017-09-22T07:10:37.083Z,21.60
2017-09-22T07:13:04.653Z,19.23
2017-09-22T07:15:33.025Z,21.70
2017-09-22T07:18:01.486Z,21.47
2017-09-22T07:20:29.057Z,20.30
2017-09-22T07:22:56.747Z,15.87
2017-09-22T07:25:24.335Z,18.43
2017-09-22T07:27:52.888Z,19.10
2017-09-22T07:30:21.427Z,20.10
2017-09-22T07:32:49.001Z,18.90
2017-09-22T07:35:16.594Z,20.40
2017-09-22T07:37:44.180Z,15.63
2017-09-22T07:40:11.766Z,16.73
2017-09-22T07:42:39.354Z,20.90
2017-09-22T07:45:06.967Z,15.97
2017-09-22T07:47:35.302Z,17.40
2017-09-22T07:50:02.978Z,19.73
2017-09-22T07:52:30.571Z,17.57
2017-09-22T07:55:00.055Z,17.10
2017-09-22T07:57:27.625Z,18.33
2017-09-22T07:59:57.043Z,16.90
2017-09-22T08:02:25.413Z,19.10
2017-09-22T08:04:52.989Z,17.23
2017-09-22T08:07:21.363Z,21.37
2017-09-22T08:09:49.730Z,17.63
2017-09-22T08:12:17.314Z,17.53
2017-09-22T08:14:45.658Z,22.33
2017-09-22T08:17:13.433Z,17.23
2017-09-22T08:19:41.044Z,17.23
2017-09-22T08:22:08.638Z,14.70
2017-09-22T08:24:36.249Z,18.40
2017-09-22T08:27:03.841Z,17.23
2017-09-22T08:29:31.421Z,17.07
2017-09-22T08:31:59.027Z,17.90
2017-09-22T08:34:27.383Z,17.90
2017-09-22T08:36:54.945Z,19.23
2017-09-22T08:39:22.537Z,17.47
2017-09-22T08:41:50.105Z,18.80
2017-09-22T08:44:18.575Z,21.40
2017-09-22T08:46:48.637Z,17.30
2017-09-22T08:49:16.229Z,19.97
2017-09-22T08:51:43.814Z,20.03
2017-09-22T08:54:12.202Z,16.13
2017-09-22T08:56:39.982Z,19.50
2017-09-22T08:59:07.591Z,19.10
2017-09-22T09:01:35.186Z,17.77
2017-09-22T09:04:04.233Z,18.50
2017-09-22T09:06:31.818Z,20.50
2017-09-22T09:08:59.397Z,18.80
2017-09-22T09:11:28.682Z,18.27
2017-09-22T09:13:56.745Z,17.17
2017-09-22T09:16:24.341Z,18.40
2017-09-22T09:31:51.945Z,18.53
2017-09-22T09:34:19.539Z,15.30
2017-09-22T09:36:47.120Z,17.67
2017-09-22T09:39:14.714Z,19.63
2017-09-22T09:41:42.329Z,18.67
2017-09-22T09:44:10.966Z,17.43
2017-09-22T09:46:38.547Z,22.90
2017-09-22T09:49:06.164Z,16.13
2017-09-22T09:51:33.779Z,15.07
2017-09-22T09:54:01.366Z,17.53
2017-09-22T09:56:29.719Z,17.90
2017-09-22T09:58:57.302Z,16.10
2017-09-22T10:01:25.691Z,15.33
2017-09-22T10:03:53.274Z,19.60
2017-09-22T10:06:20.902Z,17.97
2017-09-22T10:08:49.253Z,16.20
2017-09-22T10:11:16.826Z,20.20
2017-09-22T10:13:44.426Z,16.40
2017-09-22T10:16:11.994Z,16.80
2017-09-22T10:18:39.600Z,22.17
2017-09-22T10:21:07.223Z,17.70
2017-09-22T10:23:34.824Z,19.50
2017-09-22T10:26:02.412Z,24.53
2017-09-22T10:28:30.781Z,20.13
2017-09-22T10:30:59.170Z,21.33
2017-09-22T10:33:27.539Z,15.83
2017-09-22T10:35:55.154Z,18.57
2017-09-22T10:38:23.492Z,17.57
2017-09-22T10:40:51.839Z,21.83
2017-09-22T10:43:19.448Z,16.40
2017-09-22T10:45:47.119Z,18.07
2017-09-22T10:48:14.696Z,19.17
2017-09-22T10:50:42.434Z,15.70
2017-09-22T10:53:10.767Z,17.80
2017-09-22T10:55:38.359Z,17.93
2017-09-22T10:58:06.713Z,15.40
2017-09-22T11:00:34.317Z,20.20
2017-09-22T11:03:02.730Z,19.10
2017-09-22T11:05:30.312Z,16.83
2017-09-22T11:07:57.908Z,19.83
2017-09-22T11:10:26.439Z,24.83
2017-09-22T11:12:54.023Z,15.73
2017-09-22T11:15:21.582Z,17.37
2017-09-22T11:17:49.199Z,22.70
2017-09-22T11:20:23.116Z,21.13
2017-09-22T11:22:53.992Z,19.97
2017-09-22T11:25:21.714Z,24.20
2017-09-22T11:27:49.287Z,16.30
2017-09-22T11:30:16.865Z,20.90
2017-09-22T11:32:44.828Z,24.23
2017-09-22T11:35:12.461Z,21.43
2017-09-22T11:37:40.980Z,22.07
2017-09-22T11:40:08.565Z,18.03
2017-09-22T11:42:36.161Z,16.50
2017-09-22T11:45:03.734Z,16.63
2017-09-22T11:47:31.325Z,19.13
2017-09-22T11:49:58.899Z,19.37
2017-09-22T11:52:27.379Z,16.03
2017-09-22T11:54:55.011Z,14.10
2017-09-22T11:57:22.629Z,16.83
2017-09-22T11:59:51.030Z,17.73
2017-09-22T12:02:18.649Z,15.43
2017-09-22T12:04:46.251Z,19.47
2017-09-22T12:07:13.919Z,21.97
2017-09-22T12:09:41.519Z,17.57
2017-09-22T12:12:09.164Z,17.60
2017-09-22T12:14:36.775Z,21.23
2017-09-22T12:17:04.342Z,20.60
2017-09-22T12:19:32.985Z,17.90
2017-09-22T12:22:00.809Z,22.73
2017-09-22T12:24:28.394Z,18.30
2017-09-22T12:26:55.971Z,17.47
2017-09-22T12:29:23.905Z,18.70
2017-09-22T12:31:52.237Z,17.27
2017-09-22T12:34:19.815Z,14.50
2017-09-22T12:36:47.410Z,18.07
2017-09-22T12:39:15.003Z,18.30
2017-09-22T12:41:42.706Z,21.97
2017-09-22T12:44:10.352Z,20.17
2017-09-22T12:46:37.938Z,25.67
2017-09-22T12:49:06.289Z,19.50
2017-09-22T12:51:34.218Z,19.37
2017-09-22T12:54:01.792Z,20.50
2017-09-22T12:56:29.385Z,24.10
2017-09-22T12:58:56.963Z,15.33
2017-09-22T13:01:24.516Z,20.77
2017-09-22T13:03:52.119Z,18.13
2017-09-22T13:06:19.720Z,18.60
2017-09-22T13:08:47.287Z,18.20
2017-09-22T13:11:14.878Z,17.03
2017-09-22T13:13:43.299Z,18.97
2017-09-22T13:16:11.818Z,21.10
2017-09-22T13:18:39.414Z,18.80
2017-09-22T13:21:06.999Z,16.40
2017-09-22T13:23:34.596Z,13.90
2017-09-22T13:26:02.182Z,15.93
2017-09-22T13:28:30.645Z,18.80
2017-09-22T13:30:58.246Z,14.10
2017-09-22T13:33:25.875Z,12.50
2017-09-22T13:35:53.470Z,9.27
2017-09-22T13:38:21.054Z,13.60
2017-09-22T13:40:48.709Z,11.77
2017-09-22T13:43:17.043Z,10.23
2017-09-22T13:45:44.601Z,9.43
2017-09-22T13:48:12.187Z,13.20
2017-09-22T13:50:39.828Z,12.20
2017-09-22T13:53:07.422Z,12.83
2017-09-22T13:55:35.010Z,11.47
2017-09-22T13:58:02.616Z,13.97
2017-09-22T14:00:30.965Z,13.37
2017-09-22T14:02:58.578Z,10.80
2017-09-22T14:05:26.164Z,9.77
2017-09-22T14:07:53.730Z,10.40
2017-09-22T14:10:21.544Z,10.70
2017-09-22T14:12:49.122Z,8.40
2017-09-22T14:15:17.474Z,9.57
2017-09-22T14:17:45.063Z,9.23
2017-09-22T14:20:12.822Z,10.50
2017-09-22T14:22:41.161Z,10.97
2017-09-22T14:25:09.343Z,11.47
2017-09-22T14:27:36.923Z,9.13
2017-09-22T14:30:05.275Z,10.13
2017-09-22T14:32:32.888Z,7.27
2017-09-22T14:35:01.238Z,10.20
2017-09-22T14:37:28.946Z,11.70
2017-09-22T14:39:56.527Z,9.73
2017-09-22T14:42:24.142Z,14.67
2017-09-22T14:44:52.549Z,17.40
2017-09-22T14:47:20.909Z,10.80
2017-09-22T14:49:48.498Z,10.27
2017-09-22T14:52:16.086Z,12.93
2017-09-22T14:54:43.678Z,11.33
2017-09-22T14:57:12.046Z,9.23
2017-09-22T14:59:39.620Z,11.60
2017-09-22T15:02:08.018Z,14.73
2017-09-22T15:04:35.831Z,8.20
2017-09-22T15:07:03.401Z,10.80
2017-09-22T15:09:31.029Z,10.03
2017-09-22T15:11:58.614Z,10.93
2017-09-22T15:14:26.273Z,13.57
2017-09-22T15:16:53.883Z,11.70
2017-09-22T15:19:22.198Z,9.20
2017-09-22T15:21:49.800Z,10.43
2017-09-22T15:24:17.371Z,10.47
2017-09-22T15:26:45.727Z,9.90
2017-09-22T15:29:13.287Z,8.73
2017-09-22T15:31:40.885Z,9.43
2017-09-22T15:34:09.500Z,11.60
2017-09-22T15:36:37.366Z,10.57
2017-09-22T15:39:04.962Z,12.60
2017-09-22T15:41:32.567Z,9.20
2017-09-22T15:44:00.939Z,11.30
2017-09-22T15:46:29.270Z,9.10
2017-09-22T15:48:56.868Z,9.47
2017-09-22T15:51:25.214Z,16.63
2017-09-22T15:53:52.793Z,13.00
2017-09-22T15:56:20.376Z,13.67
2017-09-22T15:58:48.735Z,9.90
2017-09-22T16:01:16.344Z,11.20
2017-09-22T16:03:43.929Z,11.90
2017-09-22T16:06:11.517Z,12.27
2017-09-22T16:08:39.155Z,12.37
2017-09-22T16:11:06.762Z,11.47
2017-09-22T16:13:35.397Z,12.40
2017-09-22T16:16:03.250Z,15.50
2017-09-22T16:18:31.130Z,12.20
2017-09-22T16:20:58.734Z,11.47
2017-09-22T16:23:27.086Z,12.53
2017-09-22T16:25:54.987Z,16.00
2017-09-22T16:28:23.343Z,12.97
2017-09-22T16:30:51.107Z,13.07
2017-09-22T16:33:18.721Z,12.60
2017-09-22T16:35:46.324Z,16.53
2017-09-22T16:38:13.902Z,13.50
2017-09-22T16:40:41.496Z,13.60
2017-09-22T16:43:09.122Z,14.30
2017-09-22T16:45:36.941Z,14.67
2017-09-22T16:48:04.542Z,12.07
2017-09-22T16:50:32.132Z,14.10
2017-09-22T16:53:00.451Z,14.70
2017-09-22T16:55:28.080Z,14.03
2017-09-22T16:57:56.423Z,13.47
2017-09-22T17:00:24.025Z,14.73
2017-09-22T17:02:52.402Z,20.70
2017-09-22T17:05:20.753Z,16.40
2017-09-22T17:07:48.313Z,22.07
2017-09-22T17:10:15.925Z,18.43
2017-09-22T17:12:43.522Z,22.50
2017-09-22T17:15:11.125Z,14.27
2017-09-22T17:17:39.482Z,17.97
2017-09-22T17:20:07.074Z,21.13
2017-09-22T17:22:34.869Z,19.23
2017-09-22T17:25:02.473Z,14.90
2017-09-22T17:27:30.070Z,15.90
2017-09-22T17:29:57.839Z,16.10
2017-09-22T17:32:30.969Z,14.80
2017-09-22T17:34:58.656Z,17.57
2017-09-22T17:37:26.214Z,11.30
2017-09-22T17:39:53.833Z,17.03
2017-09-22T17:42:21.442Z,13.87
2017-09-22T17:44:51.131Z,15.03
2017-09-22T17:47:22.458Z,16.53
2017-09-22T17:49:50.096Z,14.80
2017-09-22T17:52:17.692Z,15.27
2017-09-22T17:54:45.283Z,12.27
2017-09-22T17:57:12.869Z,15.13
2017-09-22T17:59:41.229Z,12.10
2017-09-22T18:02:13.567Z,13.33
2017-09-22T18:04:41.968Z,11.67
2017-09-22T18:07:09.539Z,14.33
2017-09-22T18:09:37.152Z,15.30
2017-09-22T18:12:04.762Z,15.40
2017-09-22T18:14:32.369Z,20.13
2017-09-22T18:16:59.992Z,18.77
2017-09-22T18:19:28.404Z,17.80
2017-09-22T18:21:56.291Z,19.23
2017-09-22T18:24:23.886Z,12.20
2017-09-22T18:26:51.470Z,17.70
2017-09-22T18:29:19.835Z,12.40
2017-09-22T18:31:47.458Z,16.67
2017-09-22T18:34:15.213Z,15.10
2017-09-22T18:36:42.785Z,13.03
2017-09-22T18:39:10.685Z,18.33
2017-09-22T18:41:39.527Z,18.63
2017-09-22T18:44:07.126Z,22.90
2017-09-22T18:46:34.836Z,20.50
2017-09-22T18:49:03.185Z,22.13
2017-09-22T18:51:30.814Z,22.00
2017-09-22T18:53:58.410Z,22.90
2017-09-22T18:56:26.001Z,20.73
2017-09-22T18:58:53.617Z,28.77
2017-09-22T19:01:21.224Z,29.13
2017-09-22T19:03:49.138Z,24.80
2017-09-22T19:06:16.706Z,20.17
2017-09-22T19:08:44.468Z,26.50
2017-09-22T19:11:12.053Z,22.33
2017-09-22T19:13:39.856Z,21.33
2017-09-22T19:16:07.445Z,22.43
2017-09-22T19:18:35.236Z,26.70
2017-09-22T19:21:03.062Z,22.07
2017-09-22T19:23:30.628Z,24.57
2017-09-22T19:25:58.268Z,26.37
2017-09-22T19:28:25.842Z,23.00
2017-09-22T19:30:53.467Z,24.63
2017-09-22T19:33:21.816Z,30.87
2017-09-22T19:35:49.488Z,29.57
2017-09-22T19:38:17.075Z,32.23
2017-09-22T19:40:45.410Z,31.83
2017-09-22T19:43:13.277Z,30.10
2017-09-22T19:45:40.845Z,33.27
2017-09-22T19:48:08.450Z,28.90
2017-09-22T19:50:36.882Z,26.33
2017-09-22T19:53:04.487Z,27.53
2017-09-22T19:55:32.852Z,28.90
2017-09-22T19:58:00.467Z,32.27
2017-09-22T20:00:28.925Z,28.90
2017-09-22T20:02:56.506Z,31.80
2017-09-22T20:05:24.105Z,31.40
2017-09-22T20:07:51.715Z,30.97
2017-09-22T20:10:19.287Z,31.40
2017-09-22T20:12:46.887Z,31.83
2017-09-22T20:15:14.485Z,31.63
2017-09-22T20:17:42.111Z,34.90
2017-09-22T20:20:09.714Z,37.37
2017-09-22T20:22:38.055Z,32.67
2017-09-22T20:25:05.677Z,34.73
2017-09-22T20:27:34.033Z,38.73
2017-09-22T20:30:02.335Z,36.50
2017-09-22T20:32:30.704Z,38.43
2017-09-22T20:34:59.062Z,35.20
2017-09-22T20:37:27.439Z,34.60
2017-09-22T20:39:55.816Z,35.37
2017-09-22T20:42:24.171Z,32.47
2017-09-22T20:44:51.762Z,42.40
2017-09-22T20:47:20.142Z,37.57
2017-09-22T20:49:47.719Z,34.80
2017-09-22T20:52:15.342Z,39.23
2017-09-22T20:54:42.945Z,38.00
2017-09-22T20:57:10.521Z,37.20
2017-09-22T20:59:38.182Z,40.10
2017-09-22T21:02:05.771Z,42.73
2017-09-22T21:04:33.397Z,46.10
2017-09-22T21:07:01.012Z,41.37
2017-09-22T21:09:28.785Z,41.97
2017-09-22T21:11:57.266Z,47.63
2017-09-22T21:14:25.598Z,45.03
2017-09-22T21:16:53.178Z,44.43
2017-09-22T21:19:20.796Z,41.87
2017-09-22T21:21:48.372Z,40.77
2017-09-22T21:24:15.979Z,39.70
2017-09-22T21:26:43.738Z,40.00
2017-09-22T21:29:11.318Z,39.03
2017-09-22T21:31:39.675Z,43.33
2017-09-22T21:34:07.370Z,41.20
2017-09-22T21:36:35.758Z,42.03
2017-09-22T21:39:03.321Z,46.67
2017-09-22T21:41:30.916Z,46.83
2017-09-22T21:43:58.499Z,50.37
2017-09-22T21:46:26.097Z,52.20
2017-09-22T21:48:54.447Z,46.20
2017-09-22T21:51:22.043Z,44.50
2017-09-22T21:53:49.645Z,50.30
2017-09-22T21:56:17.242Z,47.33
2017-09-22T21:58:45.586Z,48.07
2017-09-22T22:01:13.174Z,52.27
2017-09-22T22:03:46.268Z,47.43
2017-09-22T22:06:19.498Z,52.33
2017-09-22T22:08:52.803Z,49.63
2017-09-22T22:11:20.367Z,54.23
2017-09-22T22:13:47.969Z,58.27
2017-09-22T22:16:15.590Z,49.60
2017-09-22T22:18:43.176Z,51.80
2017-09-22T22:21:10.964Z,56.33
2017-09-22T22:23:38.535Z,54.63
2017-09-22T22:26:06.902Z,56.00
2017-09-22T22:28:34.456Z,58.10
2017-09-22T22:31:02.031Z,54.10
2017-09-22T22:33:29.635Z,63.47
2017-09-22T22:35:57.228Z,64.23
2017-09-22T22:38:25.064Z,71.53
2017-09-22T22:40:52.642Z,70.20
2017-09-22T22:43:20.269Z,80.43
2017-09-22T22:45:48.622Z,76.97
2017-09-22T22:48:16.999Z,77.03
2017-09-22T22:50:44.624Z,78.00
2017-09-22T22:53:12.225Z,83.20
2017-09-22T22:55:39.824Z,80.17
2017-09-22T22:58:07.414Z,85.53
2017-09-22T23:00:35.031Z,86.37
2017-09-22T23:03:02.643Z,88.00
2017-09-22T23:05:30.246Z,90.13
2017-09-22T23:07:58.636Z,87.57
2017-09-22T23:10:27.010Z,99.07
2017-09-22T23:12:55.390Z,97.43
2017-09-22T23:15:23.742Z,98.50
2017-09-22T23:17:51.374Z,98.70
2017-09-22T23:20:19.095Z,105.70
2017-09-22T23:22:47.451Z,108.53
2017-09-22T23:25:15.045Z,113.70
2017-09-22T23:27:43.422Z,115.93
2017-09-22T23:30:11.147Z,110.00
2017-09-22T23:32:38.717Z,119.90
2017-09-22T23:35:06.337Z,114.03
2017-09-22T23:37:34.272Z,112.80
2017-09-22T23:40:02.632Z,107.67
2017-09-22T23:42:30.433Z,110.40
2017-09-22T23:44:58.018Z,111.67
2017-09-22T23:47:25.615Z,109.23
2017-09-22T23:49:53.219Z,98.17
2017-09-22T23:52:20.873Z,107.57
2017-09-22T23:54:49.222Z,93.20
2017-09-22T23:57:16.847Z,89.50
2017-09-22T23:59:44.422Z,94.70
